sensor_id;sensor_type;location;lat;lon;timestamp;temperature;humidity
23713;DHT22;12035;49.978;8.298;2023-08-08T00:03:44;19.50;54.50
23713;DHT22;12035;49.978;8.298;2023-08-08T00:08:41;19.50;54.60
23713;DHT22;12035;49.978;8.298;2023-08-08T00:13:38;19.50;54.60
23713;DHT22;12035;49.978;8.298;2023-08-08T00:18:37;19.50;54.60
23713;DHT22;12035;49.978;8.298;2023-08-08T00:23:34;19.50;54.70
23713;DHT22;12035;49.978;8.298;2023-08-08T00:28:31;19.50;54.70
23713;DHT22;12035;49.978;8.298;2023-08-08T00:33:28;19.50;54.80
23713;DHT22;12035;49.978;8.298;2023-08-08T00:38:26;19.40;54.80
23713;DHT22;12035;49.978;8.298;2023-08-08T00:43:23;19.40;55.00
23713;DHT22;12035;49.978;8.298;2023-08-08T00:48:20;19.40;55.10
23713;DHT22;12035;49.978;8.298;2023-08-08T00:53:18;19.40;55.20
23713;DHT22;12035;49.978;8.298;2023-08-08T00:58:19;19.40;55.30
23713;DHT22;12035;49.978;8.298;2023-08-08T01:03:16;19.40;55.40
23713;DHT22;12035;49.978;8.298;2023-08-08T01:08:16;19.40;55.40
23713;DHT22;12035;49.978;8.298;2023-08-08T01:13:24;19.30;55.60
23713;DHT22;12035;49.978;8.298;2023-08-08T01:18:22;19.30;55.80
23713;DHT22;12035;49.978;8.298;2023-08-08T01:23:24;19.30;55.60
23713;DHT22;12035;49.978;8.298;2023-08-08T01:28:24;19.30;55.90
23713;DHT22;12035;49.978;8.298;2023-08-08T01:33:21;19.30;55.90
23713;DHT22;12035;49.978;8.298;2023-08-08T01:38:23;19.20;55.90
23713;DHT22;12035;49.978;8.298;2023-08-08T01:43:26;19.20;56.10
23713;DHT22;12035;49.978;8.298;2023-08-08T01:48:24;19.20;56.20
23713;DHT22;12035;49.978;8.298;2023-08-08T01:53:21;19.10;56.10
23713;DHT22;12035;49.978;8.298;2023-08-08T01:58:18;19.10;56.20
23713;DHT22;12035;49.978;8.298;2023-08-08T02:03:16;19.10;56.40
23713;DHT22;12035;49.978;8.298;2023-08-08T02:08:13;19.00;56.40
23713;DHT22;12035;49.978;8.298;2023-08-08T02:13:10;19.00;56.40
23713;DHT22;12035;49.978;8.298;2023-08-08T02:18:07;18.90;56.60
23713;DHT22;12035;49.978;8.298;2023-08-08T02:23:07;18.80;56.80
23713;DHT22;12035;49.978;8.298;2023-08-08T02:28:05;18.70;57.10
23713;DHT22;12035;49.978;8.298;2023-08-08T02:33:02;18.60;57.20
23713;DHT22;12035;49.978;8.298;2023-08-08T02:37:59;18.50;57.30
23713;DHT22;12035;49.978;8.298;2023-08-08T02:42:58;18.40;57.40
23713;DHT22;12035;49.978;8.298;2023-08-08T02:47:55;18.30;57.50
23713;DHT22;12035;49.978;8.298;2023-08-08T02:52:52;18.20;57.60
23713;DHT22;12035;49.978;8.298;2023-08-08T02:57:49;18.20;57.80
23713;DHT22;12035;49.978;8.298;2023-08-08T03:02:47;18.10;57.80
23713;DHT22;12035;49.978;8.298;2023-08-08T03:07:44;18.00;58.10
23713;DHT22;12035;49.978;8.298;2023-08-08T03:12:41;18.00;58.10
23713;DHT22;12035;49.978;8.298;2023-08-08T03:17:39;17.90;58.20
23713;DHT22;12035;49.978;8.298;2023-08-08T03:22:37;17.90;58.40
23713;DHT22;12035;49.978;8.298;2023-08-08T03:27:34;17.80;58.60
23713;DHT22;12035;49.978;8.298;2023-08-08T03:32:32;17.80;58.50
23713;DHT22;12035;49.978;8.298;2023-08-08T03:37:29;17.70;58.60
23713;DHT22;12035;49.978;8.298;2023-08-08T03:42:27;17.70;58.70
23713;DHT22;12035;49.978;8.298;2023-08-08T03:47:24;17.70;58.80
23713;DHT22;12035;49.978;8.298;2023-08-08T03:52:22;17.70;58.70
23713;DHT22;12035;49.978;8.298;2023-08-08T03:57:19;17.80;58.80
23713;DHT22;12035;49.978;8.298;2023-08-08T04:02:17;17.80;58.80
23713;DHT22;12035;49.978;8.298;2023-08-08T04:07:14;17.70;58.90
23713;DHT22;12035;49.978;8.298;2023-08-08T04:12:11;17.70;58.80
23713;DHT22;12035;49.978;8.298;2023-08-08T04:17:08;17.70;58.80
23713;DHT22;12035;49.978;8.298;2023-08-08T04:22:07;17.70;59.00
23713;DHT22;12035;49.978;8.298;2023-08-08T04:27:04;17.60;59.20
23713;DHT22;12035;49.978;8.298;2023-08-08T04:32:02;17.60;59.50
23713;DHT22;12035;49.978;8.298;2023-08-08T04:36:59;17.60;59.80
23713;DHT22;12035;49.978;8.298;2023-08-08T04:41:57;17.70;60.40
23713;DHT22;12035;49.978;8.298;2023-08-08T04:46:55;18.10;60.80
23713;DHT22;12035;49.978;8.298;2023-08-08T04:51:52;18.50;61.00
23713;DHT22;12035;49.978;8.298;2023-08-08T04:56:49;19.00;60.40
23713;DHT22;12035;49.978;8.298;2023-08-08T05:01:48;19.60;59.80
23713;DHT22;12035;49.978;8.298;2023-08-08T05:06:45;20.10;59.10
23713;DHT22;12035;49.978;8.298;2023-08-08T05:11:42;20.70;58.40
23713;DHT22;12035;49.978;8.298;2023-08-08T05:16:39;21.30;57.70
23713;DHT22;12035;49.978;8.298;2023-08-08T05:21:38;21.90;57.10
23713;DHT22;12035;49.978;8.298;2023-08-08T05:26:36;22.50;55.90
23713;DHT22;12035;49.978;8.298;2023-08-08T05:31:33;23.10;55.10
23713;DHT22;12035;49.978;8.298;2023-08-08T05:36:30;23.70;54.90
23713;DHT22;12035;49.978;8.298;2023-08-08T05:41:29;24.40;53.50
23713;DHT22;12035;49.978;8.298;2023-08-08T05:46:26;25.00;51.80
23713;DHT22;12035;49.978;8.298;2023-08-08T05:51:23;25.60;51.30
23713;DHT22;12035;49.978;8.298;2023-08-08T05:56:20;26.10;50.00
23713;DHT22;12035;49.978;8.298;2023-08-08T06:01:18;26.40;48.80
23713;DHT22;12035;49.978;8.298;2023-08-08T06:06:16;26.60;47.90
23713;DHT22;12035;49.978;8.298;2023-08-08T06:11:13;26.80;48.00
23713;DHT22;12035;49.978;8.298;2023-08-08T06:16:10;27.20;48.10
23713;DHT22;12035;49.978;8.298;2023-08-08T06:21:08;27.50;47.20
23713;DHT22;12035;49.978;8.298;2023-08-08T06:26:06;27.90;46.60
23713;DHT22;12035;49.978;8.298;2023-08-08T06:31:03;28.30;46.40
23713;DHT22;12035;49.978;8.298;2023-08-08T06:36:00;28.70;45.50
23713;DHT22;12035;49.978;8.298;2023-08-08T06:40:58;29.10;44.60
23713;DHT22;12035;49.978;8.298;2023-08-08T06:45:56;29.60;43.30
23713;DHT22;12035;49.978;8.298;2023-08-08T06:50:53;29.90;42.20
23713;DHT22;12035;49.978;8.298;2023-08-08T06:55:50;30.20;41.20
23713;DHT22;12035;49.978;8.298;2023-08-08T07:00:50;30.40;40.60
23713;DHT22;12035;49.978;8.298;2023-08-08T07:05:47;30.50;39.80
23713;DHT22;12035;49.978;8.298;2023-08-08T07:10:47;30.60;40.00
23713;DHT22;12035;49.978;8.298;2023-08-08T07:15:44;30.80;39.60
23713;DHT22;12035;49.978;8.298;2023-08-08T07:20:43;31.00;39.30
23713;DHT22;12035;49.978;8.298;2023-08-08T07:25:40;31.20;37.70
23713;DHT22;12035;49.978;8.298;2023-08-08T07:30:37;31.20;37.30
23713;DHT22;12035;49.978;8.298;2023-08-08T07:35:34;31.10;36.60
23713;DHT22;12035;49.978;8.298;2023-08-08T07:40:32;30.90;36.70
23713;DHT22;12035;49.978;8.298;2023-08-08T07:45:29;30.80;36.40
23713;DHT22;12035;49.978;8.298;2023-08-08T07:50:26;30.70;35.90
23713;DHT22;12035;49.978;8.298;2023-08-08T07:55:23;30.40;35.80
23713;DHT22;12035;49.978;8.298;2023-08-08T08:00:22;30.00;35.90
23713;DHT22;12035;49.978;8.298;2023-08-08T08:05:19;29.60;36.20
23713;DHT22;12035;49.978;8.298;2023-08-08T08:10:16;29.10;36.30
23713;DHT22;12035;49.978;8.298;2023-08-08T08:15:14;28.70;36.80
23713;DHT22;12035;49.978;8.298;2023-08-08T08:20:12;28.20;36.50
23713;DHT22;12035;49.978;8.298;2023-08-08T08:25:10;27.70;37.10
23713;DHT22;12035;49.978;8.298;2023-08-08T08:30:07;27.10;37.60
23713;DHT22;12035;49.978;8.298;2023-08-08T08:35:07;26.70;38.30
23713;DHT22;12035;49.978;8.298;2023-08-08T08:40:08;26.30;38.90
23713;DHT22;12035;49.978;8.298;2023-08-08T08:45:06;26.00;39.60
23713;DHT22;12035;49.978;8.298;2023-08-08T08:50:06;25.70;39.90
23713;DHT22;12035;49.978;8.298;2023-08-08T08:55:06;25.50;40.30
23713;DHT22;12035;49.978;8.298;2023-08-08T09:00:04;25.40;40.70
23713;DHT22;12035;49.978;8.298;2023-08-08T09:05:03;25.40;41.00
23713;DHT22;12035;49.978;8.298;2023-08-08T09:10:01;25.40;41.10
23713;DHT22;12035;49.978;8.298;2023-08-08T09:15:01;25.40;41.40
23713;DHT22;12035;49.978;8.298;2023-08-08T09:19:59;25.50;41.30
23713;DHT22;12035;49.978;8.298;2023-08-08T09:24:56;25.60;41.30
23713;DHT22;12035;49.978;8.298;2023-08-08T09:29:55;25.70;41.30
23713;DHT22;12035;49.978;8.298;2023-08-08T09:34:53;25.80;41.60
23713;DHT22;12035;49.978;8.298;2023-08-08T09:39:56;25.90;41.30
23713;DHT22;12035;49.978;8.298;2023-08-08T09:44:53;26.10;41.40
23713;DHT22;12035;49.978;8.298;2023-08-08T09:49:52;26.20;41.40
23713;DHT22;12035;49.978;8.298;2023-08-08T09:54:50;26.30;41.40
23713;DHT22;12035;49.978;8.298;2023-08-08T09:59:47;26.30;41.30
23713;DHT22;12035;49.978;8.298;2023-08-08T10:04:47;26.40;41.60
23713;DHT22;12035;49.978;8.298;2023-08-08T10:09:45;26.50;41.60
23713;DHT22;12035;49.978;8.298;2023-08-08T10:14:44;26.60;41.40
23713;DHT22;12035;49.978;8.298;2023-08-08T10:19:51;26.60;41.20
23713;DHT22;12035;49.978;8.298;2023-08-08T10:24:51;26.60;40.50
23713;DHT22;12035;49.978;8.298;2023-08-08T10:29:51;26.50;40.70
23713;DHT22;12035;49.978;8.298;2023-08-08T10:34:48;26.50;41.00
23713;DHT22;12035;49.978;8.298;2023-08-08T10:39:52;26.40;41.10
23713;DHT22;12035;49.978;8.298;2023-08-08T10:44:51;26.40;40.50
23713;DHT22;12035;49.978;8.298;2023-08-08T10:49:57;26.40;40.20
23713;DHT22;12035;49.978;8.298;2023-08-08T10:54:58;26.50;40.20
23713;DHT22;12035;49.978;8.298;2023-08-08T10:59:55;26.50;39.20
23713;DHT22;12035;49.978;8.298;2023-08-08T11:04:52;26.40;39.20
23713;DHT22;12035;49.978;8.298;2023-08-08T11:09:49;26.40;39.60
23713;DHT22;12035;49.978;8.298;2023-08-08T11:14:47;26.20;39.60
23713;DHT22;12035;49.978;8.298;2023-08-08T11:19:45;26.20;39.80
23713;DHT22;12035;49.978;8.298;2023-08-08T11:24:42;26.10;39.50
23713;DHT22;12035;49.978;8.298;2023-08-08T11:29:39;26.00;39.20
23713;DHT22;12035;49.978;8.298;2023-08-08T11:34:38;26.00;39.50
23713;DHT22;12035;49.978;8.298;2023-08-08T11:39:35;26.00;39.20
23713;DHT22;12035;49.978;8.298;2023-08-08T11:44:33;26.00;38.30
23713;DHT22;12035;49.978;8.298;2023-08-08T11:49:30;26.00;38.70
23713;DHT22;12035;49.978;8.298;2023-08-08T11:54:30;26.00;39.10
23713;DHT22;12035;49.978;8.298;2023-08-08T11:59:27;26.10;38.90
23713;DHT22;12035;49.978;8.298;2023-08-08T12:04:24;26.20;38.90
23713;DHT22;12035;49.978;8.298;2023-08-08T12:09:21;26.20;39.10
23713;DHT22;12035;49.978;8.298;2023-08-08T12:14:20;26.30;39.00
23713;DHT22;12035;49.978;8.298;2023-08-08T12:19:17;26.40;37.90
23713;DHT22;12035;49.978;8.298;2023-08-08T12:24:19;26.40;37.80
23713;DHT22;12035;49.978;8.298;2023-08-08T12:29:16;26.40;37.50
23713;DHT22;12035;49.978;8.298;2023-08-08T12:34:14;26.40;37.50
23713;DHT22;12035;49.978;8.298;2023-08-08T12:39:11;26.40;37.60
23713;DHT22;12035;49.978;8.298;2023-08-08T12:44:09;26.30;37.50
23713;DHT22;12035;49.978;8.298;2023-08-08T12:49:06;26.30;37.20
23713;DHT22;12035;49.978;8.298;2023-08-08T12:54:05;26.20;36.80
23713;DHT22;12035;49.978;8.298;2023-08-08T12:59:03;26.20;37.10
23713;DHT22;12035;49.978;8.298;2023-08-08T13:04:00;26.20;37.20
23713;DHT22;12035;49.978;8.298;2023-08-08T13:08:59;26.20;37.30
23713;DHT22;12035;49.978;8.298;2023-08-08T13:13:57;26.30;37.40
23713;DHT22;12035;49.978;8.298;2023-08-08T13:18:54;26.30;37.80
23713;DHT22;12035;49.978;8.298;2023-08-08T13:23:51;26.40;37.80
23713;DHT22;12035;49.978;8.298;2023-08-08T13:28:48;26.50;37.80
23713;DHT22;12035;49.978;8.298;2023-08-08T13:33:47;26.50;37.20
23713;DHT22;12035;49.978;8.298;2023-08-08T13:38:44;26.40;37.00
23713;DHT22;12035;49.978;8.298;2023-08-08T13:43:41;26.40;37.20
23713;DHT22;12035;49.978;8.298;2023-08-08T13:48:39;26.40;36.90
23713;DHT22;12035;49.978;8.298;2023-08-08T13:53:37;26.40;37.10
23713;DHT22;12035;49.978;8.298;2023-08-08T13:58:34;26.40;36.90
23713;DHT22;12035;49.978;8.298;2023-08-08T14:03:31;26.30;37.00
23713;DHT22;12035;49.978;8.298;2023-08-08T14:08:28;26.20;37.40
23713;DHT22;12035;49.978;8.298;2023-08-08T14:13:27;26.10;37.60
23713;DHT22;12035;49.978;8.298;2023-08-08T14:18:24;26.00;37.80
23713;DHT22;12035;49.978;8.298;2023-08-08T14:23:21;25.90;38.10
23713;DHT22;12035;49.978;8.298;2023-08-08T14:28:18;25.80;38.40
23713;DHT22;12035;49.978;8.298;2023-08-08T14:33:16;25.70;38.60
23713;DHT22;12035;49.978;8.298;2023-08-08T14:38:14;25.50;39.00
23713;DHT22;12035;49.978;8.298;2023-08-08T14:43:11;25.30;39.60
23713;DHT22;12035;49.978;8.298;2023-08-08T14:48:08;25.10;40.10
23713;DHT22;12035;49.978;8.298;2023-08-08T14:53:07;25.00;40.70
23713;DHT22;12035;49.978;8.298;2023-08-08T14:58:04;24.80;41.10
23713;DHT22;12035;49.978;8.298;2023-08-08T15:03:01;24.70;41.40
23713;DHT22;12035;49.978;8.298;2023-08-08T15:07:59;24.70;41.80
23713;DHT22;12035;49.978;8.298;2023-08-08T15:12:57;24.70;42.20
23713;DHT22;12035;49.978;8.298;2023-08-08T15:17:54;24.60;42.20
23713;DHT22;12035;49.978;8.298;2023-08-08T15:22:51;24.60;42.40
23713;DHT22;12035;49.978;8.298;2023-08-08T15:27:48;24.60;42.60
23713;DHT22;12035;49.978;8.298;2023-08-08T15:32:47;24.60;42.80
23713;DHT22;12035;49.978;8.298;2023-08-08T15:37:44;24.60;43.00
23713;DHT22;12035;49.978;8.298;2023-08-08T15:42:41;24.60;43.30
23713;DHT22;12035;49.978;8.298;2023-08-08T15:47:38;24.60;43.60
23713;DHT22;12035;49.978;8.298;2023-08-08T15:52:37;24.60;43.70
23713;DHT22;12035;49.978;8.298;2023-08-08T15:57:34;24.60;44.00
23713;DHT22;12035;49.978;8.298;2023-08-08T16:02:32;24.60;44.20
23713;DHT22;12035;49.978;8.298;2023-08-08T16:07:29;24.60;44.20
23713;DHT22;12035;49.978;8.298;2023-08-08T16:12:27;24.60;44.40
23713;DHT22;12035;49.978;8.298;2023-08-08T16:17:24;24.60;44.70
23713;DHT22;12035;49.978;8.298;2023-08-08T16:22:22;24.60;44.80
23713;DHT22;12035;49.978;8.298;2023-08-08T16:27:19;24.60;45.00
23713;DHT22;12035;49.978;8.298;2023-08-08T16:32:17;24.60;45.00
23713;DHT22;12035;49.978;8.298;2023-08-08T16:37:14;24.60;45.60
23713;DHT22;12035;49.978;8.298;2023-08-08T16:42:11;24.50;44.90
23713;DHT22;12035;49.978;8.298;2023-08-08T16:47:08;24.60;44.80
23713;DHT22;12035;49.978;8.298;2023-08-08T16:52:08;24.50;44.80
23713;DHT22;12035;49.978;8.298;2023-08-08T16:57:06;24.40;44.90
23713;DHT22;12035;49.978;8.298;2023-08-08T17:02:03;24.40;45.00
23713;DHT22;12035;49.978;8.298;2023-08-08T17:07:00;24.30;45.00
23713;DHT22;12035;49.978;8.298;2023-08-08T17:11:58;24.30;45.10
23713;DHT22;12035;49.978;8.298;2023-08-08T17:16:55;24.20;45.20
23713;DHT22;12035;49.978;8.298;2023-08-08T17:21:52;24.20;45.40
23713;DHT22;12035;49.978;8.298;2023-08-08T17:26:51;24.10;45.50
23713;DHT22;12035;49.978;8.298;2023-08-08T17:31:50;24.00;45.60
23713;DHT22;12035;49.978;8.298;2023-08-08T17:36:47;24.00;45.70
23713;DHT22;12035;49.978;8.298;2023-08-08T17:41:49;24.00;45.80
23713;DHT22;12035;49.978;8.298;2023-08-08T17:46:50;24.00;46.10
23713;DHT22;12035;49.978;8.298;2023-08-08T17:51:48;24.00;46.20
23713;DHT22;12035;49.978;8.298;2023-08-08T17:56:46;23.90;46.40
23713;DHT22;12035;49.978;8.298;2023-08-08T18:01:43;23.90;46.40
23713;DHT22;12035;49.978;8.298;2023-08-08T18:06:42;23.80;46.50
23713;DHT22;12035;49.978;8.298;2023-08-08T18:11:39;23.80;46.80
23713;DHT22;12035;49.978;8.298;2023-08-08T18:16:36;23.70;46.80
23713;DHT22;12035;49.978;8.298;2023-08-08T18:21:34;23.70;47.00
23713;DHT22;12035;49.978;8.298;2023-08-08T18:26:33;23.60;47.00
23713;DHT22;12035;49.978;8.298;2023-08-08T18:31:30;23.50;47.10
23713;DHT22;12035;49.978;8.298;2023-08-08T18:36:28;23.50;47.10
23713;DHT22;12035;49.978;8.298;2023-08-08T18:41:26;23.50;47.20
23713;DHT22;12035;49.978;8.298;2023-08-08T18:46:25;23.40;47.30
23713;DHT22;12035;49.978;8.298;2023-08-08T18:51:22;23.40;47.60
23713;DHT22;12035;49.978;8.298;2023-08-08T18:56:19;23.30;47.60
23713;DHT22;12035;49.978;8.298;2023-08-08T19:01:16;23.30;47.80
23713;DHT22;12035;49.978;8.298;2023-08-08T19:06:16;23.20;47.90
23713;DHT22;12035;49.978;8.298;2023-08-08T19:11:13;23.10;48.20
23713;DHT22;12035;49.978;8.298;2023-08-08T19:16:10;23.00;48.20
23713;DHT22;12035;49.978;8.298;2023-08-08T19:21:07;23.00;48.40
23713;DHT22;12035;49.978;8.298;2023-08-08T19:26:06;23.00;48.70
23713;DHT22;12035;49.978;8.298;2023-08-08T19:31:03;22.90;48.90
23713;DHT22;12035;49.978;8.298;2023-08-08T19:36:00;22.90;49.10
23713;DHT22;12035;49.978;8.298;2023-08-08T19:40:59;22.80;49.30
23713;DHT22;12035;49.978;8.298;2023-08-08T19:45:58;22.80;49.40
23713;DHT22;12035;49.978;8.298;2023-08-08T19:50:55;22.70;49.60
23713;DHT22;12035;49.978;8.298;2023-08-08T19:55:52;22.70;49.70
23713;DHT22;12035;49.978;8.298;2023-08-08T20:00:53;22.60;49.80
23713;DHT22;12035;49.978;8.298;2023-08-08T20:05:52;22.60;50.00
23713;DHT22;12035;49.978;8.298;2023-08-08T20:10:49;22.50;50.30
23713;DHT22;12035;49.978;8.298;2023-08-08T20:15:46;22.40;50.40
23713;DHT22;12035;49.978;8.298;2023-08-08T20:20:44;22.40;50.70
23713;DHT22;12035;49.978;8.298;2023-08-08T20:25:42;22.30;50.80
23713;DHT22;12035;49.978;8.298;2023-08-08T20:30:39;22.30;51.20
23713;DHT22;12035;49.978;8.298;2023-08-08T20:35:36;22.20;51.50
23713;DHT22;12035;49.978;8.298;2023-08-08T20:40:34;22.10;51.70
23713;DHT22;12035;49.978;8.298;2023-08-08T20:45:32;22.00;52.00
23713;DHT22;12035;49.978;8.298;2023-08-08T20:50:29;21.90;52.30
23713;DHT22;12035;49.978;8.298;2023-08-08T20:55:28;21.80;52.60
23713;DHT22;12035;49.978;8.298;2023-08-08T21:00:25;21.70;53.00
23713;DHT22;12035;49.978;8.298;2023-08-08T21:05:24;21.70;53.40
23713;DHT22;12035;49.978;8.298;2023-08-08T21:10:21;21.60;54.20
23713;DHT22;12035;49.978;8.298;2023-08-08T21:15:19;21.50;54.70
23713;DHT22;12035;49.978;8.298;2023-08-08T21:20:16;21.50;55.10
23713;DHT22;12035;49.978;8.298;2023-08-08T21:25:14;21.40;55.50
23713;DHT22;12035;49.978;8.298;2023-08-08T21:30:11;21.30;56.20
23713;DHT22;12035;49.978;8.298;2023-08-08T21:35:08;21.20;56.30
23713;DHT22;12035;49.978;8.298;2023-08-08T21:40:07;21.20;56.60
23713;DHT22;12035;49.978;8.298;2023-08-08T21:45:06;21.20;57.00
23713;DHT22;12035;49.978;8.298;2023-08-08T21:50:05;21.10;57.40
23713;DHT22;12035;49.978;8.298;2023-08-08T21:55:04;21.10;57.50
23713;DHT22;12035;49.978;8.298;2023-08-08T22:00:01;21.10;57.80
23713;DHT22;12035;49.978;8.298;2023-08-08T22:05:02;21.00;57.90
23713;DHT22;12035;49.978;8.298;2023-08-08T22:09:59;21.00;58.50
23713;DHT22;12035;49.978;8.298;2023-08-08T22:14:57;20.90;58.50
23713;DHT22;12035;49.978;8.298;2023-08-08T22:19:54;21.00;58.90
23713;DHT22;12035;49.978;8.298;2023-08-08T22:24:52;21.00;59.00
23713;DHT22;12035;49.978;8.298;2023-08-08T22:29:49;21.00;59.40
23713;DHT22;12035;49.978;8.298;2023-08-08T22:34:46;21.00;59.20
23713;DHT22;12035;49.978;8.298;2023-08-08T22:39:43;21.10;59.50
23713;DHT22;12035;49.978;8.298;2023-08-08T22:44:42;21.10;59.80
23713;DHT22;12035;49.978;8.298;2023-08-08T22:49:39;21.00;60.00
23713;DHT22;12035;49.978;8.298;2023-08-08T22:54:36;21.00;60.00
23713;DHT22;12035;49.978;8.298;2023-08-08T22:59:33;20.90;60.30
23713;DHT22;12035;49.978;8.298;2023-08-08T23:04:32;20.80;60.50
23713;DHT22;12035;49.978;8.298;2023-08-08T23:09:29;20.80;61.30
23713;DHT22;12035;49.978;8.298;2023-08-08T23:14:26;20.80;61.20
23713;DHT22;12035;49.978;8.298;2023-08-08T23:19:23;20.70;61.20
23713;DHT22;12035;49.978;8.298;2023-08-08T23:24:23;20.80;61.50
23713;DHT22;12035;49.978;8.298;2023-08-08T23:29:20;20.70;62.10
23713;DHT22;12035;49.978;8.298;2023-08-08T23:34:17;20.70;62.40
23713;DHT22;12035;49.978;8.298;2023-08-08T23:39:14;20.80;62.60
23713;DHT22;12035;49.978;8.298;2023-08-08T23:44:13;20.80;62.50
23713;DHT22;12035;49.978;8.298;2023-08-08T23:49:10;20.90;62.60
23713;DHT22;12035;49.978;8.298;2023-08-08T23:54:08;20.90;62.70
23713;DHT22;12035;49.978;8.298;2023-08-08T23:59:07;20.90;62.90
